createdAt,value
2024-02-01T00:00:52.379Z,5.50
2024-02-01T00:03:20.217Z,5.93
2024-02-01T00:05:48.210Z,5.60
2024-02-01T00:08:16.277Z,6.07
2024-02-01T00:10:44.234Z,5.70
2024-02-01T00:13:13.661Z,5.50
2024-02-01T00:15:41.700Z,6.03
2024-02-01T00:18:09.657Z,6.10
2024-02-01T00:20:42.636Z,6.43
2024-02-01T00:23:12.985Z,5.93
2024-02-01T00:25:47.393Z,6.10
2024-02-01T00:28:17.037Z,6.47
2024-02-01T00:30:50.578Z,6.63
2024-02-01T00:33:18.482Z,6.57
2024-02-01T00:35:47.069Z,6.20
2024-02-01T00:38:17.945Z,6.07
2024-02-01T00:40:46.394Z,6.30
2024-02-01T00:43:15.854Z,6.20
2024-02-01T00:45:43.885Z,6.90
2024-02-01T00:48:11.952Z,5.70
2024-02-01T00:50:43.186Z,7.03
2024-02-01T00:53:11.010Z,6.10
2024-02-01T00:55:40.116Z,5.47
2024-02-01T00:58:10.972Z,5.27
2024-02-01T01:00:40.537Z,6.13
2024-02-01T01:03:08.658Z,6.30
2024-02-01T01:05:36.775Z,6.07
2024-02-01T01:08:06.217Z,5.53
2024-02-01T01:10:39.758Z,6.27
2024-02-01T01:13:07.715Z,5.60
2024-02-01T01:15:43.450Z,5.10
2024-02-01T01:18:12.803Z,6.10
2024-02-01T01:20:45.183Z,6.03
2024-02-01T01:23:13.291Z,6.97
2024-02-01T01:25:41.152Z,6.30
2024-02-01T01:28:09.562Z,6.10
2024-02-01T01:30:41.117Z,6.37
2024-02-01T01:33:09.385Z,5.93
2024-02-01T01:35:39.242Z,5.90
2024-02-01T01:38:07.042Z,6.73
2024-02-01T01:40:37.817Z,6.60
2024-02-01T01:43:06.009Z,6.70
2024-02-01T01:45:33.864Z,6.17
2024-02-01T01:48:01.999Z,5.50
2024-02-01T01:50:30.071Z,6.33
2024-02-01T01:53:02.263Z,6.57
2024-02-01T01:55:33.926Z,6.67
2024-02-01T01:58:02.533Z,6.23
2024-02-01T02:00:30.452Z,5.50
2024-02-01T02:03:00.451Z,5.43
2024-02-01T02:05:28.650Z,4.63
2024-02-01T02:07:57.665Z,5.20
2024-02-01T02:10:26.999Z,5.73
2024-02-01T02:12:57.119Z,5.60
2024-02-01T02:15:25.193Z,4.10
2024-02-01T02:17:57.265Z,4.53
2024-02-01T02:20:32.313Z,4.37
2024-02-01T02:23:11.845Z,5.17
2024-02-01T02:28:23.371Z,5.00
2024-02-01T02:30:52.347Z,4.87
2024-02-01T02:33:20.254Z,4.43
2024-02-01T02:35:51.719Z,4.40
2024-02-01T02:38:26.323Z,4.50
2024-02-01T02:40:55.254Z,4.40
2024-02-01T02:43:26.285Z,4.43
2024-02-01T02:45:54.410Z,4.70
2024-02-01T02:48:22.545Z,4.20
2024-02-01T02:50:50.742Z,3.90
2024-02-01T02:53:19.900Z,4.10
2024-02-01T02:55:50.519Z,4.30
2024-02-01T02:58:18.494Z,3.80
2024-02-01T03:00:46.487Z,3.80
2024-02-01T03:03:15.202Z,3.57
2024-02-01T03:05:44.319Z,3.40
2024-02-01T03:08:12.967Z,3.37
2024-02-01T03:10:42.676Z,3.70
2024-02-01T03:13:11.079Z,3.07
2024-02-01T03:15:39.137Z,3.47
2024-02-01T03:18:18.826Z,2.80
2024-02-01T03:20:52.365Z,3.13
2024-02-01T03:23:24.363Z,3.10
2024-02-01T03:25:58.961Z,2.90
2024-02-01T03:28:31.482Z,3.67
2024-02-01T03:31:02.293Z,2.60
2024-02-01T03:33:31.713Z,3.20
2024-02-01T03:36:00.522Z,3.23
2024-02-01T03:38:28.872Z,3.03
2024-02-01T03:41:01.102Z,3.50
2024-02-01T03:43:30.125Z,3.47
2024-02-01T03:46:00.695Z,2.90
2024-02-01T03:48:28.864Z,2.50
2024-02-01T03:50:56.806Z,2.60
2024-02-01T03:53:25.324Z,2.50
2024-02-01T03:55:53.137Z,3.10
2024-02-01T03:58:23.253Z,3.67
2024-02-01T04:00:51.925Z,3.03
2024-02-01T04:03:20.360Z,3.33
2024-02-01T04:05:48.474Z,3.67
2024-02-01T04:08:20.180Z,3.07
2024-02-01T04:10:48.327Z,2.80
2024-02-01T04:13:23.398Z,2.83
2024-02-01T04:15:51.231Z,2.57
2024-02-01T04:18:19.407Z,2.83
2024-02-01T04:20:47.453Z,2.83
2024-02-01T04:23:15.526Z,2.23
2024-02-01T04:25:43.540Z,2.90
2024-02-01T04:28:13.491Z,2.90
2024-02-01T04:30:51.540Z,2.40
2024-02-01T04:33:25.823Z,2.63
2024-02-01T04:35:54.920Z,2.70
2024-02-01T04:38:22.933Z,2.60
2024-02-01T04:40:50.866Z,2.50
2024-02-01T04:43:25.261Z,2.93
2024-02-01T04:45:54.552Z,2.30
2024-02-01T04:48:24.319Z,2.47
2024-02-01T04:50:55.156Z,2.33
2024-02-01T04:53:28.882Z,2.60
2024-02-01T04:55:56.734Z,2.40
2024-02-01T04:58:24.586Z,2.80
2024-02-01T05:00:54.195Z,2.40
2024-02-01T05:03:25.977Z,2.43
2024-02-01T05:06:01.480Z,2.10
2024-02-01T05:08:29.544Z,2.07
2024-02-01T05:11:00.051Z,2.00
2024-02-01T05:13:32.024Z,2.07
2024-02-01T05:16:03.486Z,1.87
2024-02-01T05:18:31.481Z,1.97
2024-02-01T05:20:59.622Z,1.70
2024-02-01T05:23:27.453Z,1.57
2024-02-01T05:25:55.314Z,1.77
2024-02-01T05:28:24.139Z,2.17
2024-02-01T05:31:01.446Z,2.07
2024-02-01T05:33:31.352Z,2.10
2024-02-01T05:35:59.354Z,2.00
2024-02-01T05:38:27.264Z,1.60
2024-02-01T05:40:58.088Z,1.63
2024-02-01T05:43:27.302Z,2.00
2024-02-01T05:45:58.393Z,2.13
2024-02-01T05:48:26.553Z,2.10
2024-02-01T05:50:56.251Z,2.20
2024-02-01T05:53:24.548Z,1.80
2024-02-01T05:55:52.270Z,2.10
2024-02-01T05:58:20.145Z,1.70
2024-02-01T06:00:48.461Z,2.03
2024-02-01T06:03:16.241Z,2.63
2024-02-01T06:05:45.312Z,2.33
2024-02-01T06:08:15.333Z,2.40
2024-02-01T06:10:43.377Z,2.17
2024-02-01T06:13:12.162Z,2.43
2024-02-01T06:15:42.145Z,2.23
2024-02-01T06:18:13.088Z,2.67
2024-02-01T06:20:43.248Z,2.40
2024-02-01T06:23:11.138Z,2.57
2024-02-01T06:25:40.506Z,3.67
2024-02-01T06:28:19.792Z,3.00
2024-02-01T06:30:53.034Z,4.47
2024-02-01T06:33:29.962Z,4.47
2024-02-01T06:35:58.021Z,4.33
2024-02-01T06:38:46.590Z,5.53
2024-02-01T06:41:29.207Z,4.90
2024-02-01T06:44:11.115Z,4.43
2024-02-01T06:46:56.771Z,4.47
2024-02-01T06:52:37.161Z,4.50
2024-02-01T06:55:25.024Z,4.70
2024-02-01T06:58:05.187Z,3.80
2024-02-01T07:00:54.720Z,3.97
2024-02-01T07:03:45.824Z,4.40
2024-02-01T07:06:35.393Z,3.70
2024-02-01T07:09:30.923Z,3.67
2024-02-01T07:12:16.506Z,3.20
2024-02-01T07:15:00.238Z,4.10
2024-02-01T07:17:29.963Z,3.83
2024-02-01T07:19:58.705Z,4.43
2024-02-01T07:23:01.829Z,3.83
2024-02-01T07:25:38.360Z,5.77
2024-02-01T07:28:27.439Z,5.03
2024-02-01T07:31:21.523Z,4.67
2024-02-01T07:34:07.659Z,4.50
2024-02-01T07:36:59.218Z,3.77
2024-02-01T07:39:48.220Z,3.53
2024-02-01T07:42:46.652Z,4.17
2024-02-01T07:45:32.617Z,3.80
2024-02-01T07:48:19.618Z,3.70
2024-02-01T07:51:08.497Z,3.30
2024-02-01T07:54:00.218Z,5.27
2024-02-01T07:56:46.247Z,3.93
2024-02-01T07:59:15.612Z,4.20
2024-02-01T08:02:03.676Z,4.60
2024-02-01T08:04:49.484Z,3.93
2024-02-01T08:07:34.721Z,4.77
2024-02-01T08:10:02.905Z,4.67
2024-02-01T08:12:35.458Z,5.10
2024-02-01T08:15:04.839Z,4.40
2024-02-01T08:17:33.498Z,4.30
2024-02-01T08:20:14.060Z,3.97
2024-02-01T08:22:43.173Z,4.30
2024-02-01T08:25:13.018Z,3.40
2024-02-01T08:27:50.842Z,3.97
2024-02-01T08:30:21.213Z,4.20
2024-02-01T08:32:50.016Z,4.70
2024-02-01T08:35:22.375Z,6.30
2024-02-01T08:37:51.431Z,4.07
2024-02-01T08:40:21.650Z,4.43
2024-02-01T08:42:51.005Z,3.87
2024-02-01T08:45:20.354Z,3.30
2024-02-01T08:47:49.792Z,3.57
2024-02-01T08:50:18.277Z,4.10
2024-02-01T08:52:50.271Z,3.07
2024-02-01T08:55:19.573Z,3.50
2024-02-01T08:57:48.534Z,3.70
2024-02-01T09:00:33.346Z,3.50
2024-02-01T09:03:07.638Z,3.23
2024-02-01T09:05:38.337Z,3.33
2024-02-01T09:08:13.670Z,3.53
2024-02-01T09:10:54.147Z,3.80
2024-02-01T09:13:25.462Z,3.40
2024-02-01T09:15:54.987Z,3.77
2024-02-01T09:18:31.442Z,3.20
2024-02-01T09:20:59.728Z,3.13
2024-02-01T09:23:29.540Z,3.97
2024-02-01T09:25:58.722Z,3.67
2024-02-01T09:28:26.655Z,3.60
2024-02-01T09:30:56.945Z,3.47
2024-02-01T09:33:38.320Z,3.40
2024-02-01T09:36:07.396Z,3.27
2024-02-01T09:38:39.095Z,3.50
2024-02-01T09:41:17.140Z,4.20
2024-02-01T09:43:52.727Z,3.53
2024-02-01T09:46:22.123Z,3.13
2024-02-01T09:48:52.930Z,4.27
2024-02-01T09:51:23.085Z,2.90
2024-02-01T09:53:54.255Z,3.97
2024-02-01T09:56:28.364Z,5.77
2024-02-01T09:58:58.005Z,4.70
2024-02-01T10:01:29.422Z,3.50
2024-02-01T10:03:57.696Z,3.63
2024-02-01T10:06:26.017Z,4.20
2024-02-01T10:08:55.680Z,5.03
2024-02-01T10:11:24.139Z,4.00
2024-02-01T10:13:52.071Z,3.47
2024-02-01T10:16:22.562Z,3.77
2024-02-01T10:18:55.548Z,4.73
2024-02-01T10:21:35.876Z,4.37
2024-02-01T10:24:13.152Z,3.17
2024-02-01T10:26:42.435Z,3.63
2024-02-01T10:29:10.413Z,3.57
2024-02-01T10:31:44.721Z,3.93
2024-02-01T10:34:14.998Z,6.17
2024-02-01T10:36:48.475Z,3.30
2024-02-01T10:39:30.940Z,3.73
2024-02-01T10:42:04.572Z,3.63
2024-02-01T10:44:37.624Z,4.20
2024-02-01T10:47:07.169Z,3.63
2024-02-01T10:49:42.411Z,3.43
2024-02-01T10:52:13.618Z,5.00
2024-02-01T10:54:44.464Z,3.77
2024-02-01T10:57:16.735Z,3.80
2024-02-01T10:59:48.611Z,4.30
2024-02-01T11:02:24.568Z,3.93
2024-02-01T11:04:52.495Z,3.80
2024-02-01T11:07:22.319Z,4.90
2024-02-01T11:09:56.417Z,4.70
2024-02-01T11:12:27.109Z,3.80
2024-02-01T11:14:57.826Z,4.47
2024-02-01T11:17:30.252Z,3.60
2024-02-01T11:19:58.604Z,4.00
2024-02-01T11:22:36.653Z,4.13
2024-02-01T11:25:10.157Z,3.80
2024-02-01T11:27:40.069Z,4.40
2024-02-01T11:30:23.131Z,3.40
2024-02-01T11:32:53.799Z,3.87
2024-02-01T11:35:24.256Z,4.30
2024-02-01T11:38:02.352Z,4.37
2024-02-01T11:40:45.943Z,3.17
2024-02-01T11:43:18.546Z,3.50
2024-02-01T11:45:55.436Z,2.67
2024-02-01T11:48:24.407Z,3.83
2024-02-01T11:50:57.940Z,3.30
2024-02-01T11:53:30.045Z,3.80
2024-02-01T11:56:02.763Z,3.60
2024-02-01T11:58:34.243Z,3.20
2024-02-01T12:01:13.311Z,3.60
2024-02-01T12:03:59.052Z,5.03
2024-02-01T12:06:30.501Z,4.53
2024-02-01T12:09:00.961Z,3.40
2024-02-01T12:11:36.035Z,4.73
2024-02-01T12:14:12.215Z,3.37
2024-02-01T12:16:42.505Z,4.70
2024-02-01T12:19:14.065Z,4.80
2024-02-01T12:21:45.216Z,4.13
2024-02-01T12:24:13.233Z,5.10
2024-02-01T12:26:42.584Z,3.33
2024-02-01T12:29:11.256Z,4.50
2024-02-01T12:31:39.281Z,3.60
2024-02-01T12:34:14.524Z,3.63
2024-02-01T12:36:44.626Z,4.50
2024-02-01T12:39:15.207Z,2.87
2024-02-01T12:41:46.735Z,2.70
2024-02-01T12:44:15.848Z,3.93
2024-02-01T12:46:45.266Z,4.00
2024-02-01T12:49:14.883Z,3.07
2024-02-01T12:51:48.815Z,4.00
2024-02-01T12:54:22.295Z,3.60
2024-02-01T12:56:55.693Z,3.83
2024-02-01T12:59:27.304Z,3.93
2024-02-01T13:02:00.911Z,4.07
2024-02-01T13:04:35.933Z,3.47
2024-02-01T13:07:05.121Z,4.83
2024-02-01T13:09:39.347Z,3.87
2024-02-01T13:12:20.349Z,3.60
2024-02-01T13:14:59.494Z,3.23
2024-02-01T13:17:29.169Z,4.50
2024-02-01T13:20:03.354Z,6.93
2024-02-01T13:22:33.930Z,5.17
2024-02-01T13:25:04.513Z,4.80
2024-02-01T13:27:36.487Z,3.80
2024-02-01T13:30:08.949Z,3.23
2024-02-01T13:32:36.964Z,4.00
2024-02-01T13:35:14.860Z,3.50
2024-02-01T13:37:47.728Z,3.90
2024-02-01T13:40:24.093Z,3.70
2024-02-01T13:43:00.251Z,3.10
2024-02-01T13:45:31.475Z,5.13
2024-02-01T13:48:13.495Z,3.90
2024-02-01T13:50:44.221Z,3.60
2024-02-01T13:53:18.934Z,3.97
2024-02-01T13:55:49.070Z,4.00
2024-02-01T13:58:31.586Z,3.40
2024-02-01T14:01:03.686Z,3.90
2024-02-01T14:03:32.871Z,4.17
2024-02-01T14:06:02.337Z,4.17
2024-02-01T14:08:40.569Z,2.93
2024-02-01T14:11:09.792Z,4.60
2024-02-01T14:13:42.277Z,3.60
2024-02-01T14:16:12.079Z,5.23
2024-02-01T14:18:41.273Z,3.80
2024-02-01T14:21:12.825Z,3.63
2024-02-01T14:23:43.757Z,4.13
2024-02-01T14:26:11.790Z,4.30
2024-02-01T14:28:43.114Z,5.00
2024-02-01T14:31:11.272Z,4.37
2024-02-01T14:33:43.070Z,4.40
2024-02-01T14:36:11.115Z,4.20
2024-02-01T14:38:42.981Z,4.60
2024-02-01T14:41:12.340Z,4.40
2024-02-01T14:43:42.750Z,3.60
2024-02-01T14:46:11.122Z,4.13
2024-02-01T14:48:39.215Z,4.10
2024-02-01T14:51:13.282Z,3.50
2024-02-01T14:53:47.408Z,3.13
2024-02-01T14:56:15.646Z,3.63
2024-02-01T14:58:49.698Z,4.07
2024-02-01T15:01:20.534Z,3.40
2024-02-01T15:03:53.641Z,4.77
2024-02-01T15:06:23.327Z,3.43
2024-02-01T15:08:56.682Z,4.20
2024-02-01T15:11:25.611Z,3.80
2024-02-01T15:13:58.412Z,3.20
2024-02-01T15:16:42.623Z,5.30
2024-02-01T15:19:11.065Z,3.63
2024-02-01T15:21:40.811Z,3.40
2024-02-01T15:24:14.378Z,4.17
2024-02-01T15:26:45.672Z,4.27
2024-02-01T15:29:18.108Z,3.47
2024-02-01T15:31:48.348Z,4.40
2024-02-01T15:34:17.050Z,3.70
2024-02-01T15:36:45.485Z,3.50
2024-02-01T15:39:17.487Z,3.77
2024-02-01T15:41:49.663Z,3.73
2024-02-01T15:44:19.250Z,4.00
2024-02-01T15:46:53.987Z,3.70
2024-02-01T15:49:28.324Z,4.57
2024-02-01T15:51:58.740Z,3.40
2024-02-01T15:54:29.047Z,4.80
2024-02-01T15:56:57.099Z,3.47
2024-02-01T15:59:32.443Z,3.73
2024-02-01T16:02:00.538Z,4.43
2024-02-01T16:04:31.018Z,3.70
2024-02-01T16:07:03.449Z,3.00
2024-02-01T16:09:35.492Z,3.60
2024-02-01T16:12:06.817Z,3.73
2024-02-01T16:14:43.968Z,3.90
2024-02-01T16:17:15.916Z,3.37
2024-02-01T16:19:50.436Z,4.17
2024-02-01T16:22:42.665Z,4.33
2024-02-01T16:25:34.484Z,3.37
2024-02-01T16:28:08.391Z,3.67
2024-02-01T16:31:02.518Z,3.10
2024-02-01T16:33:34.291Z,3.40
2024-02-01T16:36:07.465Z,3.13
2024-02-01T16:38:44.995Z,4.63
2024-02-01T16:41:31.544Z,3.70
2024-02-01T16:44:02.060Z,4.10
2024-02-01T16:46:52.578Z,5.27
2024-02-01T16:49:24.974Z,3.90
2024-02-01T16:51:53.774Z,5.17
2024-02-01T16:54:25.360Z,4.63
2024-02-01T16:59:38.644Z,4.03
2024-02-01T17:02:29.406Z,4.23
2024-02-01T17:04:57.518Z,3.60
2024-02-01T17:07:28.977Z,4.17
2024-02-01T17:10:01.847Z,3.67
2024-02-01T17:12:29.768Z,4.77
2024-02-01T17:14:58.562Z,4.30
2024-02-01T17:17:36.764Z,3.90
2024-02-01T17:20:11.672Z,5.57
2024-02-01T17:22:42.119Z,4.27
2024-02-01T17:25:49.039Z,4.30
2024-02-01T17:28:34.430Z,3.97
2024-02-01T17:31:18.214Z,3.40
2024-02-01T17:34:14.384Z,3.23
2024-02-01T17:36:46.237Z,3.97
2024-02-01T17:39:28.402Z,3.73
2024-02-01T17:42:01.416Z,3.93
2024-02-01T17:44:38.409Z,4.10
2024-02-01T17:47:08.024Z,3.60
2024-02-01T17:49:44.486Z,4.10
2024-02-01T17:52:54.267Z,3.60
2024-02-01T17:55:28.205Z,3.07
2024-02-01T17:58:04.846Z,4.50
2024-02-01T18:00:33.960Z,3.70
2024-02-01T18:03:04.825Z,4.20
2024-02-01T18:05:35.586Z,3.73
2024-02-01T18:08:06.962Z,3.80
2024-02-01T18:10:39.777Z,3.90
2024-02-01T18:13:11.023Z,3.80
2024-02-01T18:16:02.402Z,3.70
2024-02-01T18:18:38.600Z,3.27
2024-02-01T18:21:18.830Z,5.50
2024-02-01T18:23:48.893Z,4.60
2024-02-01T18:26:19.280Z,4.40
2024-02-01T18:28:47.343Z,3.47
2024-02-01T18:31:19.275Z,4.00
2024-02-01T18:33:50.604Z,4.00
2024-02-01T18:36:30.016Z,5.37
2024-02-01T18:39:04.888Z,3.77
2024-02-01T18:41:36.271Z,5.07
2024-02-01T18:44:21.933Z,4.40
2024-02-01T18:47:01.596Z,4.80
2024-02-01T18:49:36.960Z,4.77
2024-02-01T18:52:08.557Z,5.50
2024-02-01T18:54:37.212Z,5.47
2024-02-01T18:57:08.397Z,3.77
2024-02-01T18:59:55.841Z,4.17
2024-02-01T19:02:48.481Z,4.50
2024-02-01T19:05:22.715Z,3.97
2024-02-01T19:08:00.292Z,4.47
2024-02-01T19:10:46.086Z,5.40
2024-02-01T19:13:53.929Z,4.50
2024-02-01T19:16:26.710Z,5.53
2024-02-01T19:19:04.772Z,4.67
2024-02-01T19:21:36.746Z,3.93
2024-02-01T19:24:09.585Z,4.27
2024-02-01T19:26:39.126Z,4.40
2024-02-01T19:29:07.976Z,4.07
2024-02-01T19:31:37.891Z,5.17
2024-02-01T19:34:06.058Z,5.10
2024-02-01T19:36:38.677Z,5.83
2024-02-01T19:39:13.431Z,4.80
2024-02-01T19:41:42.992Z,3.90
2024-02-01T19:44:11.372Z,5.00
2024-02-01T19:46:45.527Z,5.23
2024-02-01T19:49:14.042Z,4.87
2024-02-01T19:51:46.930Z,5.70
2024-02-01T19:54:16.206Z,4.90
2024-02-01T19:56:49.055Z,4.50
2024-02-01T19:59:16.882Z,6.43
2024-02-01T20:01:47.083Z,6.17
2024-02-01T20:04:16.904Z,5.20
2024-02-01T20:06:46.762Z,4.67
2024-02-01T20:09:16.239Z,4.70
2024-02-01T20:11:46.850Z,5.30
2024-02-01T20:14:17.881Z,4.37
2024-02-01T20:16:48.785Z,5.40
2024-02-01T20:19:19.586Z,4.23
2024-02-01T20:21:47.924Z,4.40
2024-02-01T20:24:24.526Z,5.00
2024-02-01T20:26:54.558Z,4.57
2024-02-01T20:29:22.499Z,4.60
2024-02-01T20:31:50.869Z,4.00
2024-02-01T20:34:35.763Z,5.07
2024-02-01T20:37:08.068Z,5.33
2024-02-01T20:39:42.880Z,6.30
2024-02-01T20:42:21.893Z,6.87
2024-02-01T20:44:54.143Z,6.70
2024-02-01T20:47:27.312Z,4.70
2024-02-01T20:49:55.603Z,5.27
2024-02-01T20:52:29.051Z,4.90
2024-02-01T20:55:28.096Z,5.70
2024-02-01T20:58:06.384Z,4.93
2024-02-01T21:00:38.253Z,5.60
2024-02-01T21:03:08.447Z,6.07
2024-02-01T21:05:45.251Z,4.77
2024-02-01T21:08:24.618Z,4.53
2024-02-01T21:10:53.964Z,5.17
2024-02-01T21:13:23.162Z,5.43
2024-02-01T21:15:53.469Z,5.80
2024-02-01T21:18:23.385Z,6.20
2024-02-01T21:20:52.030Z,5.00
2024-02-01T21:23:45.654Z,5.60
2024-02-01T21:26:35.477Z,5.40
2024-02-01T21:29:09.696Z,6.50
2024-02-01T21:31:43.478Z,4.93
2024-02-01T21:34:12.936Z,5.90
2024-02-01T21:36:40.881Z,5.63
2024-02-01T21:39:20.779Z,5.00
2024-02-01T21:41:49.972Z,5.50
2024-02-01T21:44:19.119Z,5.93
2024-02-01T21:46:50.164Z,6.03
2024-02-01T21:49:20.112Z,4.80
2024-02-01T21:51:48.594Z,5.57
2024-02-01T21:54:16.996Z,4.70
2024-02-01T21:56:46.310Z,5.00
2024-02-01T21:59:16.292Z,5.83
2024-02-01T22:01:44.303Z,5.50
2024-02-01T22:04:12.350Z,6.33
2024-02-01T22:06:42.672Z,6.70
2024-02-01T22:09:11.506Z,5.13
2024-02-01T22:11:39.574Z,4.50
2024-02-01T22:14:09.900Z,6.17
2024-02-01T22:16:39.109Z,5.00
2024-02-01T22:19:06.950Z,5.03
2024-02-01T22:21:34.984Z,5.00
2024-02-01T22:24:02.750Z,6.63
2024-02-01T22:26:31.627Z,4.57
2024-02-01T22:29:03.254Z,4.37
2024-02-01T22:31:32.750Z,5.03
2024-02-01T22:34:02.236Z,5.30
2024-02-01T22:36:35.688Z,5.37
2024-02-01T22:39:03.996Z,8.43
2024-02-01T22:41:34.462Z,5.70
2024-02-01T22:44:02.549Z,5.80
2024-02-01T22:46:33.635Z,5.90
2024-02-01T22:49:04.857Z,5.47
2024-02-01T22:51:32.967Z,5.37
2024-02-01T22:54:00.982Z,7.83
2024-02-01T22:56:29.357Z,4.93
2024-02-01T22:58:59.108Z,4.00
2024-02-01T23:01:27.948Z,4.40
2024-02-01T23:04:08.507Z,6.17
2024-02-01T23:06:38.767Z,5.90
2024-02-01T23:09:07.051Z,6.53
2024-02-01T23:11:38.554Z,6.50
2024-02-01T23:14:09.309Z,4.70
2024-02-01T23:16:37.497Z,5.30
2024-02-01T23:19:10.083Z,5.60
2024-02-01T23:21:41.259Z,4.53
2024-02-01T23:24:09.606Z,4.17
2024-02-01T23:26:37.432Z,6.20
2024-02-01T23:29:14.992Z,5.50
2024-02-01T23:31:42.943Z,6.73
2024-02-01T23:34:12.833Z,4.83
2024-02-01T23:36:40.856Z,7.10
2024-02-01T23:39:09.204Z,5.50
2024-02-01T23:41:39.722Z,5.87
2024-02-01T23:44:10.231Z,4.90
2024-02-01T23:46:38.128Z,5.43
2024-02-01T23:49:08.647Z,3.90
2024-02-01T23:51:40.147Z,5.00
2024-02-01T23:54:10.805Z,4.73
2024-02-01T23:56:42.634Z,5.00
2024-02-01T23:59:10.900Z,4.77
